Terminal Aerodrome Forecast
Issued by NWS Twin Cities, MN

Home | Current Version | Previous Version | Graphics & Text | Print | Product List | Glossary On
Versions: 1 2 3 4 5 6 7 8 9 10 11 12 13 14 15 16 17 18
000
FTUS43 KMPX 072342
TAFEAU
TAF
KEAU 072342Z 0800/0824 27015KT P6SM -SN OVC030
     FM080600 28015KT 6SM -SN BR OVC026
      TEMPO 0809/0813 4SM -SN
     FM081500 32018G24KT P6SM -SN OVC025=

USA.gov is the U.S. government's official web portal to all federal, state and local government web resources and services.